createdAt,value
2023-05-31T00:00:39.959Z,100078.86
2023-05-31T00:03:12.627Z,100085.92
2023-05-31T00:05:45.194Z,100087.11
2023-05-31T00:08:18.187Z,100096.91
2023-05-31T00:10:50.750Z,100097.52
2023-05-31T00:13:23.814Z,100095.83
2023-05-31T00:15:57.325Z,100091.63
2023-05-31T00:18:30.262Z,100100.57
2023-05-31T00:21:02.783Z,100104.74
2023-05-31T00:23:36.433Z,100096.52
2023-05-31T00:26:08.910Z,100098.67
2023-05-31T00:28:42.369Z,100095.76
2023-05-31T00:31:14.915Z,100096.99
2023-05-31T00:33:48.057Z,100089.80
2023-05-31T00:36:20.689Z,100092.92
2023-05-31T00:38:53.112Z,100094.13
2023-05-31T00:41:26.635Z,100092.58
2023-05-31T00:43:59.135Z,100092.13
2023-05-31T00:46:35.170Z,100096.47
2023-05-31T00:49:07.682Z,100097.48
2023-05-31T00:51:40.373Z,100099.59
2023-05-31T00:54:13.366Z,100106.09
2023-05-31T00:56:46.260Z,100103.72
2023-05-31T00:59:18.659Z,100097.58
2023-05-31T01:01:51.645Z,100107.38
2023-05-31T01:04:24.362Z,100100.55
2023-05-31T01:06:58.213Z,100104.17
2023-05-31T01:09:32.278Z,100098.55
2023-05-31T01:12:24.473Z,100101.14
2023-05-31T01:15:19.798Z,100108.70
2023-05-31T01:18:24.976Z,100113.17
2023-05-31T01:20:59.355Z,100110.48
2023-05-31T01:23:58.488Z,100112.20
2023-05-31T01:26:49.869Z,100116.19
2023-05-31T01:29:27.204Z,100122.18
2023-05-31T01:32:01.701Z,100121.13
2023-05-31T01:34:33.897Z,100129.00
2023-05-31T01:37:08.245Z,100124.02
2023-05-31T01:39:41.587Z,100123.14
2023-05-31T01:42:14.630Z,100129.68
2023-05-31T01:44:49.482Z,100140.30
2023-05-31T01:47:21.933Z,100149.44
2023-05-31T01:49:54.783Z,100140.05
2023-05-31T01:52:27.522Z,100138.03
2023-05-31T01:55:00.082Z,100145.64
2023-05-31T01:57:36.050Z,100146.39
2023-05-31T02:00:12.048Z,100155.66
2023-05-31T02:02:46.787Z,100144.88
2023-05-31T02:05:19.249Z,100150.24
2023-05-31T02:07:54.787Z,100147.66
2023-05-31T02:10:27.486Z,100142.72
2023-05-31T02:13:00.132Z,100149.42
2023-05-31T02:15:32.845Z,100143.11
2023-05-31T02:18:05.685Z,100154.25
2023-05-31T02:20:38.808Z,100154.78
2023-05-31T02:23:12.018Z,100158.87
2023-05-31T02:25:52.507Z,100180.17
2023-05-31T02:28:25.505Z,100175.38
2023-05-31T02:31:02.756Z,100179.50
2023-05-31T02:33:36.073Z,100188.42
2023-05-31T02:36:09.425Z,100178.14
2023-05-31T02:38:42.500Z,100186.55
2023-05-31T02:41:16.233Z,100186.37
2023-05-31T02:43:48.717Z,100182.59
2023-05-31T02:46:21.877Z,100187.74
2023-05-31T02:48:54.572Z,100189.25
2023-05-31T02:51:27.532Z,100200.36
2023-05-31T02:54:02.734Z,100203.80
2023-05-31T02:56:37.500Z,100194.53
2023-05-31T02:59:14.275Z,100206.16
2023-05-31T03:01:48.754Z,100209.89
2023-05-31T03:04:24.069Z,100210.73
2023-05-31T03:06:57.409Z,100208.84
2023-05-31T03:09:30.162Z,100216.37
2023-05-31T03:12:03.976Z,100212.78
2023-05-31T03:14:37.652Z,100216.86
2023-05-31T03:17:11.051Z,100210.67
2023-05-31T03:19:43.550Z,100219.70
2023-05-31T03:22:16.933Z,100224.95
2023-05-31T03:24:49.736Z,100218.96
2023-05-31T03:27:22.933Z,100224.42
2023-05-31T03:29:57.135Z,100229.52
2023-05-31T03:32:29.841Z,100228.83
2023-05-31T03:35:02.372Z,100237.39
2023-05-31T03:37:35.148Z,100243.02
2023-05-31T03:40:10.665Z,100248.16
2023-05-31T03:42:43.287Z,100248.78
2023-05-31T03:45:16.077Z,100247.05
2023-05-31T03:47:49.013Z,100244.73
2023-05-31T03:50:21.686Z,100255.35
2023-05-31T03:52:54.160Z,100251.84
2023-05-31T03:55:26.794Z,100255.13
2023-05-31T03:57:59.533Z,100260.27
2023-05-31T04:00:32.537Z,100265.94
2023-05-31T04:03:05.923Z,100261.17
2023-05-31T04:05:39.402Z,100267.71
2023-05-31T04:08:12.709Z,100269.73
2023-05-31T04:10:46.290Z,100281.77
2023-05-31T04:13:19.276Z,100281.41
2023-05-31T04:15:53.005Z,100277.78
2023-05-31T04:18:25.842Z,100282.34
2023-05-31T04:20:58.594Z,100289.98
2023-05-31T04:23:32.561Z,100296.55
2023-05-31T04:26:05.349Z,100289.67
2023-05-31T04:28:39.386Z,100291.37
2023-05-31T04:31:13.028Z,100299.53
2023-05-31T04:33:46.238Z,100298.28
2023-05-31T04:36:20.273Z,100304.56
2023-05-31T04:38:54.921Z,100302.94
2023-05-31T04:41:29.895Z,100301.34
2023-05-31T04:44:02.778Z,100302.72
2023-05-31T04:46:38.022Z,100302.74
2023-05-31T04:49:11.165Z,100309.44
2023-05-31T04:51:43.784Z,100314.56
2023-05-31T04:54:16.485Z,100314.94
2023-05-31T04:56:49.526Z,100317.50
2023-05-31T04:59:22.322Z,100312.41
2023-05-31T05:01:55.308Z,100317.95
2023-05-31T05:04:29.004Z,100319.23
2023-05-31T05:07:01.688Z,100309.91
2023-05-31T05:09:34.556Z,100313.39
2023-05-31T05:12:09.695Z,100310.83
2023-05-31T05:14:44.125Z,100316.09
2023-05-31T05:17:16.697Z,100312.46
2023-05-31T05:19:49.265Z,100317.66
2023-05-31T05:22:21.980Z,100311.55
2023-05-31T05:24:54.781Z,100313.56
2023-05-31T05:27:29.831Z,100310.48
2023-05-31T05:30:02.375Z,100312.38
2023-05-31T05:32:36.189Z,100319.00
2023-05-31T05:35:09.795Z,100319.93
2023-05-31T05:37:42.489Z,100322.54
2023-05-31T05:40:15.744Z,100326.00
2023-05-31T05:42:50.300Z,100323.68
2023-05-31T05:45:23.433Z,100336.64
2023-05-31T05:47:57.461Z,100334.14
2023-05-31T05:50:30.217Z,100319.25
2023-05-31T05:53:04.593Z,100324.02
2023-05-31T05:55:39.246Z,100321.69
2023-05-31T05:58:12.471Z,100318.64
2023-05-31T06:01:03.289Z,100320.84
2023-05-31T06:03:36.356Z,100318.89
2023-05-31T06:06:09.653Z,100318.84
2023-05-31T06:08:42.464Z,100315.98
2023-05-31T06:11:17.013Z,100311.37
2023-05-31T06:16:23.890Z,100317.03
2023-05-31T06:18:56.603Z,100319.70
2023-05-31T06:21:29.325Z,100320.35
2023-05-31T06:24:07.048Z,100317.28
2023-05-31T06:26:40.723Z,100317.84
2023-05-31T06:29:13.662Z,100320.48
2023-05-31T06:31:55.703Z,100332.27
2023-05-31T06:34:29.504Z,100332.27
2023-05-31T06:37:02.971Z,100323.50
2023-05-31T06:39:35.643Z,100324.66
2023-05-31T06:42:08.537Z,100328.08
2023-05-31T06:44:55.466Z,100327.38
2023-05-31T06:47:21.039Z,100328.17
2023-05-31T06:49:58.286Z,100331.10
2023-05-31T06:52:45.256Z,100331.84
2023-05-31T06:55:37.240Z,100332.72
2023-05-31T06:58:10.888Z,100339.12
2023-05-31T07:00:46.827Z,100340.23
2023-05-31T07:03:18.532Z,100344.14
2023-05-31T07:05:51.998Z,100345.89
2023-05-31T07:08:25.189Z,100338.66
2023-05-31T07:10:59.503Z,100338.05
2023-05-31T07:13:33.117Z,100331.54
2023-05-31T07:16:06.076Z,100339.73
2023-05-31T07:18:39.055Z,100335.48
2023-05-31T07:21:11.676Z,100341.03
2023-05-31T07:23:44.234Z,100335.75
2023-05-31T07:26:19.852Z,100328.17
2023-05-31T07:28:55.186Z,100332.27
2023-05-31T07:31:28.900Z,100341.27
2023-05-31T07:34:01.939Z,100331.05
2023-05-31T07:36:35.733Z,100335.54
2023-05-31T07:39:10.253Z,100338.03
2023-05-31T07:41:44.360Z,100347.41
2023-05-31T07:44:17.769Z,100341.48
2023-05-31T07:46:50.375Z,100344.59
2023-05-31T07:49:23.381Z,100347.14
2023-05-31T07:51:56.086Z,100349.36
2023-05-31T07:54:29.184Z,100350.41
2023-05-31T07:57:02.057Z,100356.08
2023-05-31T07:59:35.027Z,100351.12
2023-05-31T08:02:08.301Z,100349.73
2023-05-31T08:04:40.829Z,100348.34
2023-05-31T08:07:13.968Z,100349.66
2023-05-31T08:09:48.743Z,100349.16
2023-05-31T08:12:24.668Z,100353.52
2023-05-31T08:14:57.201Z,100345.84
2023-05-31T08:17:29.700Z,100352.67
2023-05-31T08:20:02.485Z,100352.34
2023-05-31T08:22:36.879Z,100346.55
2023-05-31T08:25:14.397Z,100353.28
2023-05-31T08:27:47.406Z,100352.78
2023-05-31T08:30:19.841Z,100358.67
2023-05-31T08:32:54.660Z,100358.57
2023-05-31T08:35:27.632Z,100353.02
2023-05-31T08:38:00.965Z,100357.28
2023-05-31T08:40:33.865Z,100359.44
2023-05-31T08:43:19.525Z,100347.08
2023-05-31T08:45:53.322Z,100356.97
2023-05-31T08:48:36.920Z,100351.52
2023-05-31T08:51:09.534Z,100347.41
2023-05-31T08:53:44.346Z,100349.75
2023-05-31T08:56:16.729Z,100354.80
2023-05-31T08:58:52.401Z,100354.77
2023-05-31T09:01:25.281Z,100346.37
2023-05-31T09:03:57.960Z,100351.67
2023-05-31T09:06:31.284Z,100356.53
2023-05-31T09:09:04.704Z,100351.67
2023-05-31T09:11:42.279Z,100352.60
2023-05-31T09:14:15.519Z,100349.34
2023-05-31T09:16:49.240Z,100348.34
2023-05-31T09:19:21.838Z,100351.63
2023-05-31T09:21:55.125Z,100355.53
2023-05-31T09:24:27.824Z,100354.55
2023-05-31T09:27:02.287Z,100358.63
2023-05-31T09:29:34.890Z,100352.69
2023-05-31T09:32:12.027Z,100353.30
2023-05-31T09:34:44.918Z,100351.67
2023-05-31T09:37:25.213Z,100345.96
2023-05-31T09:39:58.881Z,100336.10
2023-05-31T09:42:31.562Z,100342.20
2023-05-31T09:45:04.473Z,100344.33
2023-05-31T09:47:39.859Z,100334.17
2023-05-31T09:50:25.794Z,100337.12
2023-05-31T09:53:00.199Z,100330.14
2023-05-31T09:55:44.398Z,100339.93
2023-05-31T09:58:19.480Z,100335.64
2023-05-31T10:00:51.476Z,100330.83
2023-05-31T10:03:23.084Z,100329.44
2023-05-31T10:05:55.222Z,100319.91
2023-05-31T10:08:26.980Z,100319.61
2023-05-31T10:11:03.889Z,100318.70
2023-05-31T10:13:35.987Z,100329.66
2023-05-31T10:16:08.373Z,100327.50
2023-05-31T10:18:43.024Z,100323.34
2023-05-31T10:21:25.337Z,100322.13
2023-05-31T10:24:05.068Z,100325.03
2023-05-31T10:26:46.007Z,100322.78
2023-05-31T10:29:20.118Z,100322.81
2023-05-31T10:31:52.863Z,100321.08
2023-05-31T10:34:25.496Z,100321.23
2023-05-31T10:36:57.416Z,100318.08
2023-05-31T10:39:38.112Z,100319.88
2023-05-31T10:42:42.088Z,100318.32
2023-05-31T10:45:32.001Z,100320.00
2023-05-31T10:48:37.327Z,100319.96
2023-05-31T10:51:10.470Z,100318.34
2023-05-31T10:53:42.575Z,100316.84
2023-05-31T10:56:19.056Z,100317.57
2023-05-31T10:58:54.993Z,100324.52
2023-05-31T11:01:30.407Z,100320.91
2023-05-31T11:04:02.606Z,100319.02
2023-05-31T11:06:34.854Z,100312.00
2023-05-31T11:09:13.424Z,100318.67
2023-05-31T11:11:51.264Z,100319.52
2023-05-31T11:14:45.535Z,100313.94
2023-05-31T11:17:17.901Z,100315.25
2023-05-31T11:19:52.879Z,100313.12
2023-05-31T11:22:27.050Z,100306.91
2023-05-31T11:24:59.552Z,100306.16
2023-05-31T11:27:41.628Z,100306.82
2023-05-31T11:30:17.289Z,100309.16
2023-05-31T11:32:59.246Z,100305.98
2023-05-31T11:35:32.920Z,100310.88
2023-05-31T11:38:05.927Z,100317.55
2023-05-31T11:40:38.499Z,100313.17
2023-05-31T11:43:12.614Z,100311.44
2023-05-31T11:45:46.287Z,100308.84
2023-05-31T11:48:21.599Z,100300.11
2023-05-31T11:50:53.286Z,100305.45
2023-05-31T11:53:26.419Z,100308.09
2023-05-31T11:55:59.640Z,100305.02
2023-05-31T11:58:31.840Z,100300.97
2023-05-31T12:01:03.979Z,100294.83
2023-05-31T12:03:36.528Z,100288.43
2023-05-31T12:06:09.205Z,100296.95
2023-05-31T12:08:41.227Z,100292.47
2023-05-31T12:11:13.336Z,100290.31
2023-05-31T12:13:45.650Z,100281.09
2023-05-31T12:16:17.602Z,100288.54
2023-05-31T12:18:54.453Z,100286.78
2023-05-31T12:21:27.790Z,100276.06
2023-05-31T12:24:00.361Z,100270.19
2023-05-31T12:26:36.074Z,100270.86
2023-05-31T12:29:08.630Z,100277.29
2023-05-31T12:31:41.436Z,100269.22
2023-05-31T12:34:15.644Z,100262.73
2023-05-31T12:36:49.861Z,100275.64
2023-05-31T12:39:22.946Z,100269.02
2023-05-31T12:41:54.649Z,100260.73
2023-05-31T12:44:27.509Z,100266.53
2023-05-31T12:47:06.676Z,100270.98
2023-05-31T12:49:43.167Z,100270.14
2023-05-31T12:52:16.729Z,100262.75
2023-05-31T12:54:48.896Z,100266.83
2023-05-31T12:57:21.534Z,100268.92
2023-05-31T13:00:09.548Z,100267.08
2023-05-31T13:02:42.741Z,100264.76
2023-05-31T13:05:14.870Z,100257.28
2023-05-31T13:07:47.477Z,100252.71
2023-05-31T13:10:19.222Z,100264.93
2023-05-31T13:12:50.663Z,100262.61
2023-05-31T13:15:23.291Z,100253.91
2023-05-31T13:17:54.987Z,100254.56
2023-05-31T13:20:26.969Z,100257.90
2023-05-31T13:22:59.504Z,100250.25
2023-05-31T13:25:31.190Z,100248.69
2023-05-31T13:28:02.787Z,100247.06
2023-05-31T13:30:34.886Z,100251.16
2023-05-31T13:33:06.616Z,100245.90
2023-05-31T13:35:40.177Z,100241.44
2023-05-31T13:38:12.542Z,100243.23
2023-05-31T13:40:44.754Z,100240.52
2023-05-31T13:43:16.632Z,100239.52
2023-05-31T13:45:48.387Z,100240.59
2023-05-31T13:48:20.717Z,100236.94
2023-05-31T13:50:52.768Z,100238.59
2023-05-31T13:53:24.631Z,100234.70
2023-05-31T13:58:39.568Z,100241.88
2023-05-31T14:01:12.358Z,100230.89
2023-05-31T14:03:44.688Z,100233.21
2023-05-31T14:06:18.408Z,100222.67
2023-05-31T14:08:50.192Z,100222.07
2023-05-31T14:11:23.829Z,100225.44
2023-05-31T14:13:56.088Z,100226.55
2023-05-31T14:16:29.860Z,100223.31
2023-05-31T14:19:01.892Z,100225.69
2023-05-31T14:21:35.211Z,100222.75
2023-05-31T14:24:07.337Z,100225.08
2023-05-31T14:26:39.220Z,100228.16
2023-05-31T14:29:11.090Z,100222.45
2023-05-31T14:31:42.886Z,100219.03
2023-05-31T14:34:16.506Z,100216.40
2023-05-31T14:36:49.144Z,100219.30
2023-05-31T14:39:21.897Z,100210.48
2023-05-31T14:41:53.596Z,100208.59
2023-05-31T14:44:25.436Z,100211.16
2023-05-31T14:46:57.373Z,100212.34
2023-05-31T14:49:29.263Z,100203.73
2023-05-31T14:52:01.846Z,100204.22
2023-05-31T14:54:34.557Z,100208.81
2023-05-31T14:57:07.366Z,100205.01
2023-05-31T14:59:38.795Z,100202.59
2023-05-31T15:02:11.092Z,100204.19
2023-05-31T15:04:44.030Z,100207.17
2023-05-31T15:07:16.425Z,100204.10
2023-05-31T15:09:48.619Z,100210.06
2023-05-31T15:12:22.251Z,100208.69
2023-05-31T15:14:54.033Z,100209.89
2023-05-31T15:17:26.527Z,100212.95
2023-05-31T15:20:02.507Z,100212.31
2023-05-31T15:22:35.325Z,100212.75
2023-05-31T15:25:07.443Z,100203.95
2023-05-31T15:27:39.515Z,100200.20
2023-05-31T15:30:11.734Z,100206.37
2023-05-31T15:32:44.946Z,100203.91
2023-05-31T15:35:18.347Z,100203.38
2023-05-31T15:37:51.984Z,100202.77
2023-05-31T15:40:23.907Z,100197.14
2023-05-31T15:42:56.069Z,100207.03
2023-05-31T15:45:27.814Z,100207.67
2023-05-31T15:47:59.584Z,100206.50
2023-05-31T15:50:31.437Z,100203.84
2023-05-31T15:53:04.259Z,100212.48
2023-05-31T15:55:37.374Z,100214.28
2023-05-31T15:58:09.177Z,100214.80
2023-05-31T16:00:41.537Z,100213.23
2023-05-31T16:03:15.740Z,100215.03
2023-05-31T16:05:47.692Z,100215.45
2023-05-31T16:08:21.176Z,100216.63
2023-05-31T16:10:53.248Z,100209.79
2023-05-31T16:13:26.427Z,100212.15
2023-05-31T16:18:29.068Z,100211.92
2023-05-31T16:21:01.043Z,100204.13
2023-05-31T16:23:32.844Z,100216.23
2023-05-31T16:26:04.858Z,100209.73
2023-05-31T16:28:36.770Z,100210.88
2023-05-31T16:31:14.179Z,100210.27
2023-05-31T16:33:44.668Z,100214.82
2023-05-31T16:36:16.425Z,100219.07
2023-05-31T16:38:48.391Z,100220.77
2023-05-31T16:41:20.130Z,100216.37
2023-05-31T16:43:51.768Z,100217.00
2023-05-31T16:46:23.444Z,100218.48
2023-05-31T16:48:58.165Z,100215.47
2023-05-31T16:51:30.073Z,100216.34
2023-05-31T16:54:01.683Z,100217.41
2023-05-31T16:56:33.589Z,100215.89
2023-05-31T16:59:05.566Z,100213.88
2023-05-31T17:01:37.814Z,100218.53
2023-05-31T17:04:09.920Z,100218.28
2023-05-31T17:06:43.590Z,100217.20
2023-05-31T17:09:16.030Z,100220.34
2023-05-31T17:11:48.574Z,100217.98
2023-05-31T17:14:20.605Z,100221.71
2023-05-31T17:16:52.553Z,100228.05
2023-05-31T17:19:24.435Z,100224.06
2023-05-31T17:21:57.326Z,100224.46
2023-05-31T17:24:29.036Z,100223.89
2023-05-31T17:27:01.895Z,100225.77
2023-05-31T17:29:34.345Z,100222.12
2023-05-31T17:32:06.822Z,100228.13
2023-05-31T17:34:38.433Z,100230.97
2023-05-31T17:37:10.281Z,100229.48
2023-05-31T17:39:42.061Z,100224.88
2023-05-31T17:42:13.703Z,100227.37
2023-05-31T17:44:45.835Z,100230.96
2023-05-31T17:47:18.511Z,100231.02
2023-05-31T17:49:50.413Z,100235.70
2023-05-31T17:52:22.203Z,100233.03
2023-05-31T17:57:39.021Z,100231.42
2023-05-31T18:00:14.827Z,100226.39
2023-05-31T18:02:49.371Z,100228.55
2023-05-31T18:05:22.022Z,100231.78
2023-05-31T18:07:54.138Z,100238.94
2023-05-31T18:10:26.805Z,100238.14
2023-05-31T18:12:58.688Z,100242.86
2023-05-31T18:15:30.686Z,100244.83
2023-05-31T18:18:02.613Z,100244.23
2023-05-31T18:20:34.632Z,100244.81
2023-05-31T18:23:06.405Z,100241.80
2023-05-31T18:25:39.477Z,100247.89
2023-05-31T18:28:11.501Z,100245.88
2023-05-31T18:30:43.481Z,100247.96
2023-05-31T18:33:15.761Z,100244.95
2023-05-31T18:35:47.688Z,100246.39
2023-05-31T18:38:23.558Z,100245.72
2023-05-31T18:40:55.511Z,100249.91
2023-05-31T18:43:29.922Z,100246.36
2023-05-31T18:46:03.738Z,100250.55
2023-05-31T18:48:37.922Z,100251.99
2023-05-31T18:51:10.626Z,100248.24
2023-05-31T18:53:42.838Z,100250.64
2023-05-31T18:56:14.773Z,100257.71
2023-05-31T18:58:47.924Z,100251.56
2023-05-31T19:01:21.790Z,100247.09
2023-05-31T19:03:53.686Z,100250.57
2023-05-31T19:06:26.778Z,100254.37
2023-05-31T19:08:59.099Z,100257.32
2023-05-31T19:11:31.468Z,100256.14
2023-05-31T19:14:03.361Z,100255.27
2023-05-31T19:16:36.105Z,100254.59
2023-05-31T19:19:08.234Z,100257.53
2023-05-31T19:21:40.558Z,100254.78
2023-05-31T19:24:12.809Z,100253.41
2023-05-31T19:26:44.668Z,100252.22
2023-05-31T19:29:16.630Z,100254.14
2023-05-31T19:31:49.259Z,100252.47
2023-05-31T19:34:22.930Z,100250.09
2023-05-31T19:36:54.914Z,100249.10
2023-05-31T19:39:26.711Z,100252.77
2023-05-31T19:42:00.298Z,100249.34
2023-05-31T19:44:32.219Z,100246.14
2023-05-31T19:47:04.422Z,100243.77
2023-05-31T19:49:36.580Z,100246.16
2023-05-31T19:52:08.618Z,100242.77
2023-05-31T19:54:40.398Z,100244.52
2023-05-31T19:57:11.997Z,100250.36
2023-05-31T19:59:43.787Z,100241.79
2023-05-31T20:02:15.584Z,100241.11
2023-05-31T20:04:47.564Z,100248.36
2023-05-31T20:07:19.542Z,100244.28
2023-05-31T20:09:51.638Z,100247.92
2023-05-31T20:12:23.710Z,100248.29
2023-05-31T20:14:56.326Z,100252.28
2023-05-31T20:17:29.507Z,100249.91
2023-05-31T20:20:02.587Z,100248.07
2023-05-31T20:22:36.021Z,100252.94
2023-05-31T20:25:09.035Z,100251.42
2023-05-31T20:27:40.884Z,100252.81
2023-05-31T20:30:13.573Z,100256.84
2023-05-31T20:32:45.985Z,100249.52
2023-05-31T20:35:17.977Z,100246.63
2023-05-31T20:37:49.988Z,100248.05
2023-05-31T20:40:21.541Z,100242.42
2023-05-31T20:42:54.006Z,100242.46
2023-05-31T20:45:25.522Z,100243.34
2023-05-31T20:47:57.204Z,100243.20
2023-05-31T20:50:30.606Z,100237.73
2023-05-31T20:53:02.715Z,100237.23
2023-05-31T20:55:36.903Z,100236.77
2023-05-31T20:58:09.114Z,100235.91
2023-05-31T21:00:41.481Z,100235.77
2023-05-31T21:03:13.353Z,100236.50
2023-05-31T21:05:45.273Z,100236.53
2023-05-31T21:08:17.174Z,100233.50
2023-05-31T21:10:48.995Z,100237.80
2023-05-31T21:13:20.706Z,100235.92
2023-05-31T21:15:52.378Z,100234.05
2023-05-31T21:18:24.147Z,100241.80
2023-05-31T21:20:57.559Z,100243.72
2023-05-31T21:23:29.329Z,100243.06
2023-05-31T21:26:01.478Z,100239.30
2023-05-31T21:28:34.669Z,100242.94
2023-05-31T21:31:06.786Z,100241.92
2023-05-31T21:33:40.045Z,100238.17
2023-05-31T21:36:11.902Z,100239.90
2023-05-31T21:38:43.682Z,100236.64
2023-05-31T21:41:15.506Z,100242.12
2023-05-31T21:43:47.570Z,100238.73
2023-05-31T21:46:20.900Z,100238.37
2023-05-31T21:48:53.239Z,100237.89
2023-05-31T21:51:25.106Z,100239.27
2023-05-31T21:53:56.920Z,100234.82
2023-05-31T21:56:28.638Z,100235.66
2023-05-31T21:59:01.042Z,100234.82
2023-05-31T22:01:33.406Z,100233.95
2023-05-31T22:04:05.090Z,100237.73
2023-05-31T22:06:37.606Z,100237.73
2023-05-31T22:09:09.635Z,100242.03
2023-05-31T22:11:41.672Z,100235.50
2023-05-31T22:14:15.755Z,100234.82
2023-05-31T22:16:49.610Z,100235.83
2023-05-31T22:19:23.117Z,100238.05
2023-05-31T22:21:56.186Z,100233.75
2023-05-31T22:24:28.188Z,100237.51
2023-05-31T22:26:59.984Z,100243.14
2023-05-31T22:29:32.260Z,100245.05
2023-05-31T22:32:04.379Z,100244.75
2023-05-31T22:34:36.285Z,100250.91
2023-05-31T22:37:08.291Z,100245.63
2023-05-31T22:39:40.152Z,100243.59
2023-05-31T22:42:11.816Z,100244.30
2023-05-31T22:44:43.465Z,100243.46
2023-05-31T22:47:15.653Z,100238.68
2023-05-31T22:49:47.517Z,100238.84
2023-05-31T22:52:21.092Z,100242.97
2023-05-31T22:54:52.954Z,100235.09
2023-05-31T22:57:25.675Z,100240.09
2023-05-31T22:59:57.596Z,100242.48
2023-05-31T23:02:29.537Z,100243.84
2023-05-31T23:05:01.216Z,100249.16
2023-05-31T23:07:34.405Z,100245.58
2023-05-31T23:10:06.612Z,100247.13
2023-05-31T23:12:38.587Z,100251.89
2023-05-31T23:15:11.160Z,100254.30
2023-05-31T23:17:43.800Z,100251.74
2023-05-31T23:20:16.488Z,100252.62
2023-05-31T23:22:48.341Z,100249.88
2023-05-31T23:25:19.933Z,100257.41
2023-05-31T23:27:51.915Z,100254.52
2023-05-31T23:30:23.702Z,100253.14
2023-05-31T23:32:56.198Z,100251.41
2023-05-31T23:35:27.889Z,100245.77
2023-05-31T23:38:00.569Z,100254.88
2023-05-31T23:40:32.959Z,100256.42
2023-05-31T23:43:05.121Z,100262.08
2023-05-31T23:45:37.817Z,100254.03
2023-05-31T23:48:09.929Z,100250.09
2023-05-31T23:50:43.688Z,100256.25
2023-05-31T23:53:15.414Z,100253.84
2023-05-31T23:55:47.202Z,100257.64
2023-05-31T23:58:18.963Z,100253.34
